Terminal Aerodrome Forecast
Issued by NWS Jackson, MS

Home | Current Version | Previous Version | Text Only | Print | Product List | Glossary On
Versions: 1 2 3 4 5 6 7 8 9 10 11 12 13 14 15 16
952
FTUS44 KJAN 221743
TAFGWO
TAF
KGWO 221743Z 2218/2318 06006KT P6SM SCT050
     FM222200 VRB03KT P6SM SKC
     FM230500 18003KT 5SM BR SKC
     FM230800 VRB03KT 2SM BR SKC
     FM231000 15004KT 1/4SM FG BKN005=

USA.gov is the U.S. government's official web portal to all federal, state and local government web resources and services.